sensor_id;sensor_type;location;lat;lon;timestamp;pressure;altitude;pressure_sealevel;temperature;humidity
54042;BME280;41156;51.508;5.406;2023-03-14T00:00:49;98853.91;;;10.96;100.00
54042;BME280;41156;51.508;5.406;2023-03-14T00:03:50;98851.78;;;10.92;100.00
54042;BME280;41156;51.508;5.406;2023-03-14T00:06:50;98873.09;;;10.89;100.00
54042;BME280;41156;51.508;5.406;2023-03-14T00:09:51;98855.25;;;10.83;100.00
54042;BME280;41156;51.508;5.406;2023-03-14T00:12:51;98848.72;;;10.79;100.00
54042;BME280;41156;51.508;5.406;2023-03-14T00:15:51;98843.84;;;10.76;100.00
54042;BME280;41156;51.508;5.406;2023-03-14T00:18:52;98859.78;;;10.72;100.00
54042;BME280;41156;51.508;5.406;2023-03-14T00:21:52;98866.81;;;10.68;100.00
54042;BME280;41156;51.508;5.406;2023-03-14T00:24:52;98868.13;;;10.60;100.00
54042;BME280;41156;51.508;5.406;2023-03-14T00:27:52;98874.03;;;10.57;100.00
54042;BME280;41156;51.508;5.406;2023-03-14T00:30:53;98879.16;;;10.53;100.00
54042;BME280;41156;51.508;5.406;2023-03-14T00:33:53;98886.72;;;10.51;100.00
54042;BME280;41156;51.508;5.406;2023-03-14T00:36:54;98883.47;;;10.49;100.00
54042;BME280;41156;51.508;5.406;2023-03-14T00:39:54;98882.63;;;10.49;100.00
54042;BME280;41156;51.508;5.406;2023-03-14T00:42:54;98885.09;;;10.50;100.00
54042;BME280;41156;51.508;5.406;2023-03-14T00:45:55;98888.34;;;10.52;100.00
54042;BME280;41156;51.508;5.406;2023-03-14T00:48:55;98898.06;;;10.53;100.00
54042;BME280;41156;51.508;5.406;2023-03-14T00:51:55;98892.91;;;10.52;100.00
54042;BME280;41156;51.508;5.406;2023-03-14T00:54:55;98878.88;;;10.50;100.00
54042;BME280;41156;51.508;5.406;2023-03-14T00:57:56;98891.31;;;10.51;100.00
54042;BME280;41156;51.508;5.406;2023-03-14T01:00:56;98891.56;;;10.49;100.00
54042;BME280;41156;51.508;5.406;2023-03-14T01:03:57;98881.03;;;10.48;100.00
54042;BME280;41156;51.508;5.406;2023-03-14T01:06:57;98880.50;;;10.51;100.00
54042;BME280;41156;51.508;5.406;2023-03-14T01:09:57;98876.19;;;10.50;100.00
54042;BME280;41156;51.508;5.406;2023-03-14T01:12:58;98878.88;;;10.50;100.00
54042;BME280;41156;51.508;5.406;2023-03-14T01:16:03;98886.44;;;10.48;100.00
54042;BME280;41156;51.508;5.406;2023-03-14T01:19:05;98868.06;;;10.50;100.00
54042;BME280;41156;51.508;5.406;2023-03-14T01:22:05;98880.19;;;10.47;100.00
54042;BME280;41156;51.508;5.406;2023-03-14T01:25:07;98877.50;;;10.47;100.00
54042;BME280;41156;51.508;5.406;2023-03-14T01:28:08;98873.19;;;10.46;100.00
54042;BME280;41156;51.508;5.406;2023-03-14T01:31:10;98869.66;;;10.46;100.00
54042;BME280;41156;51.508;5.406;2023-03-14T01:34:11;98862.66;;;10.45;100.00
54042;BME280;41156;51.508;5.406;2023-03-14T01:37:11;98862.91;;;10.43;100.00
54042;BME280;41156;51.508;5.406;2023-03-14T01:40:12;98850.22;;;10.44;100.00
54042;BME280;41156;51.508;5.406;2023-03-14T01:43:19;98848.88;;;10.41;100.00
54042;BME280;41156;51.508;5.406;2023-03-14T01:46:21;98844.28;;;10.42;100.00
54042;BME280;41156;51.508;5.406;2023-03-14T01:49:30;98849.66;;;10.42;100.00
54042;BME280;41156;51.508;5.406;2023-03-14T01:52:36;98829.97;;;10.41;100.00
54042;BME280;41156;51.508;5.406;2023-03-14T01:55:38;98833.47;;;10.42;100.00
54042;BME280;41156;51.508;5.406;2023-03-14T01:58:39;98825.38;;;10.42;100.00
54042;BME280;41156;51.508;5.406;2023-03-14T02:01:44;98822.66;;;10.42;100.00
54042;BME280;41156;51.508;5.406;2023-03-14T02:04:46;98826.44;;;10.41;100.00
54042;BME280;41156;51.508;5.406;2023-03-14T02:07:53;98818.59;;;10.39;100.00
54042;BME280;41156;51.508;5.406;2023-03-14T02:10:53;98825.09;;;10.38;100.00
54042;BME280;41156;51.508;5.406;2023-03-14T02:13:54;98825.09;;;10.38;100.00
54042;BME280;41156;51.508;5.406;2023-03-14T02:16:55;98817.78;;;10.39;100.00
54042;BME280;41156;51.508;5.406;2023-03-14T02:19:59;98818.88;;;10.38;100.00
54042;BME280;41156;51.508;5.406;2023-03-14T02:23:05;98811.84;;;10.36;100.00
54042;BME280;41156;51.508;5.406;2023-03-14T02:26:13;98822.09;;;10.34;100.00
54042;BME280;41156;51.508;5.406;2023-03-14T02:29:15;98811.31;;;10.34;100.00
54042;BME280;41156;51.508;5.406;2023-03-14T02:32:16;98808.03;;;10.32;100.00
54042;BME280;41156;51.508;5.406;2023-03-14T02:35:22;98804.75;;;10.30;100.00
54042;BME280;41156;51.508;5.406;2023-03-14T02:38:38;98797.44;;;10.26;100.00
54042;BME280;41156;51.508;5.406;2023-03-14T02:41:41;98794.19;;;10.18;100.00
54042;BME280;41156;51.508;5.406;2023-03-14T02:44:54;98799.28;;;10.10;100.00
54042;BME280;41156;51.508;5.406;2023-03-14T02:47:59;98793.59;;;10.06;100.00
54042;BME280;41156;51.508;5.406;2023-03-14T02:51:02;98796.56;;;10.10;100.00
54042;BME280;41156;51.508;5.406;2023-03-14T02:54:02;98796.06;;;10.13;100.00
54042;BME280;41156;51.508;5.406;2023-03-14T02:57:03;98799.03;;;10.16;100.00
54042;BME280;41156;51.508;5.406;2023-03-14T03:00:04;98803.09;;;10.19;100.00
54042;BME280;41156;51.508;5.406;2023-03-14T03:03:05;98809.31;;;10.19;100.00
54042;BME280;41156;51.508;5.406;2023-03-14T03:06:08;98807.16;;;10.22;100.00
54042;BME280;41156;51.508;5.406;2023-03-14T03:09:08;98809.59;;;10.23;100.00
54042;BME280;41156;51.508;5.406;2023-03-14T03:12:08;98805.00;;;10.24;100.00
54042;BME280;41156;51.508;5.406;2023-03-14T03:15:09;98809.34;;;10.25;100.00
54042;BME280;41156;51.508;5.406;2023-03-14T03:18:10;98815.03;;;10.28;100.00
54042;BME280;41156;51.508;5.406;2023-03-14T03:21:11;98806.38;;;10.26;100.00
54042;BME280;41156;51.508;5.406;2023-03-14T03:24:11;98804.47;;;10.27;100.00
54042;BME280;41156;51.508;5.406;2023-03-14T03:27:11;98787.47;;;10.26;100.00
54042;BME280;41156;51.508;5.406;2023-03-14T03:30:13;98800.44;;;10.24;100.00
54042;BME280;41156;51.508;5.406;2023-03-14T03:33:13;98792.34;;;10.24;100.00
54042;BME280;41156;51.508;5.406;2023-03-14T03:36:13;98797.72;;;10.24;100.00
54042;BME280;41156;51.508;5.406;2023-03-14T03:39:13;98794.19;;;10.24;100.00
54042;BME280;41156;51.508;5.406;2023-03-14T03:42:14;98790.16;;;10.21;100.00
54042;BME280;41156;51.508;5.406;2023-03-14T03:45:14;98790.97;;;10.22;100.00
54042;BME280;41156;51.508;5.406;2023-03-14T03:48:14;98782.31;;;10.19;100.00
54042;BME280;41156;51.508;5.406;2023-03-14T03:51:15;98778.53;;;10.21;100.00
54042;BME280;41156;51.508;5.406;2023-03-14T03:54:16;98784.47;;;10.17;100.00
54042;BME280;41156;51.508;5.406;2023-03-14T03:57:16;98790.41;;;10.19;100.00
54042;BME280;41156;51.508;5.406;2023-03-14T04:00:16;98786.63;;;10.21;100.00
54042;BME280;41156;51.508;5.406;2023-03-14T04:03:17;98762.56;;;10.14;100.00
54042;BME280;41156;51.508;5.406;2023-03-14T04:06:17;98786.28;;;10.07;100.00
54042;BME280;41156;51.508;5.406;2023-03-14T04:09:17;98779.50;;;9.99;100.00
54042;BME280;41156;51.508;5.406;2023-03-14T04:12:18;98780.00;;;9.91;100.00
54042;BME280;41156;51.508;5.406;2023-03-14T04:15:18;98771.31;;;9.84;100.00
54042;BME280;41156;51.508;5.406;2023-03-14T04:18:18;98773.19;;;9.78;100.00
54042;BME280;41156;51.508;5.406;2023-03-14T04:21:19;98770.75;;;9.76;100.00
54042;BME280;41156;51.508;5.406;2023-03-14T04:24:19;98771.28;;;9.78;100.00
54042;BME280;41156;51.508;5.406;2023-03-14T04:27:20;98770.25;;;9.79;100.00
54042;BME280;41156;51.508;5.406;2023-03-14T04:30:20;98768.88;;;9.82;100.00
54042;BME280;41156;51.508;5.406;2023-03-14T04:33:20;98765.66;;;9.80;100.00
54042;BME280;41156;51.508;5.406;2023-03-14T04:36:21;98764.59;;;9.81;100.00
54042;BME280;41156;51.508;5.406;2023-03-14T04:39:21;98762.69;;;9.81;100.00
54042;BME280;41156;51.508;5.406;2023-03-14T04:42:21;98757.03;;;9.83;100.00
54042;BME280;41156;51.508;5.406;2023-03-14T04:45:21;98756.22;;;9.82;100.00
54042;BME280;41156;51.508;5.406;2023-03-14T04:48:22;98765.13;;;9.83;100.00
54042;BME280;41156;51.508;5.406;2023-03-14T04:51:23;98760.25;;;9.80;100.00
54042;BME280;41156;51.508;5.406;2023-03-14T04:54:27;98751.59;;;9.73;100.00
54042;BME280;41156;51.508;5.406;2023-03-14T04:57:27;98761.25;;;9.69;100.00
54042;BME280;41156;51.508;5.406;2023-03-14T05:00:27;98764.19;;;9.62;100.00
54042;BME280;41156;51.508;5.406;2023-03-14T05:03:28;98771.44;;;9.56;100.00
54042;BME280;41156;51.508;5.406;2023-03-14T05:06:28;98769.25;;;9.53;100.00
54042;BME280;41156;51.508;5.406;2023-03-14T05:09:28;98766.00;;;9.51;100.00
54042;BME280;41156;51.508;5.406;2023-03-14T05:12:28;98757.63;;;9.48;100.00
54042;BME280;41156;51.508;5.406;2023-03-14T05:15:29;98762.44;;;9.45;100.00
54042;BME280;41156;51.508;5.406;2023-03-14T05:18:29;98760.00;;;9.44;100.00
54042;BME280;41156;51.508;5.406;2023-03-14T05:21:29;98766.72;;;9.41;100.00
54042;BME280;41156;51.508;5.406;2023-03-14T05:24:30;98763.25;;;9.41;100.00
54042;BME280;41156;51.508;5.406;2023-03-14T05:27:30;98765.09;;;9.40;100.00
54042;BME280;41156;51.508;5.406;2023-03-14T05:30:30;98755.41;;;9.39;100.00
54042;BME280;41156;51.508;5.406;2023-03-14T05:33:32;98750.81;;;9.40;100.00
54042;BME280;41156;51.508;5.406;2023-03-14T05:36:32;98733.59;;;9.41;100.00
54042;BME280;41156;51.508;5.406;2023-03-14T05:39:32;98742.72;;;9.40;100.00
54042;BME280;41156;51.508;5.406;2023-03-14T05:42:33;98747.31;;;9.39;100.00
54042;BME280;41156;51.508;5.406;2023-03-14T05:45:34;98727.06;;;9.37;100.00
54042;BME280;41156;51.508;5.406;2023-03-14T05:48:35;98740.03;;;9.40;100.00
54042;BME280;41156;51.508;5.406;2023-03-14T05:51:35;98736.53;;;9.39;100.00
54042;BME280;41156;51.508;5.406;2023-03-14T05:54:35;98729.25;;;9.40;100.00
54042;BME280;41156;51.508;5.406;2023-03-14T05:57:36;98738.97;;;9.41;100.00
54042;BME280;41156;51.508;5.406;2023-03-14T06:00:36;98725.50;;;9.41;100.00
54042;BME280;41156;51.508;5.406;2023-03-14T06:03:36;98729.81;;;9.42;100.00
54042;BME280;41156;51.508;5.406;2023-03-14T06:06:36;98726.84;;;9.43;100.00
54042;BME280;41156;51.508;5.406;2023-03-14T06:09:37;98723.72;;;9.19;100.00
54042;BME280;41156;51.508;5.406;2023-03-14T06:12:38;98716.28;;;9.37;100.00
54042;BME280;41156;51.508;5.406;2023-03-14T06:15:38;98721.97;;;9.40;100.00
54042;BME280;41156;51.508;5.406;2023-03-14T06:18:38;98727.34;;;9.40;100.00
54042;BME280;41156;51.508;5.406;2023-03-14T06:21:38;98719.00;;;9.42;100.00
54042;BME280;41156;51.508;5.406;2023-03-14T06:24:39;98726.03;;;9.43;100.00
54042;BME280;41156;51.508;5.406;2023-03-14T06:27:39;98727.66;;;9.44;100.00
54042;BME280;41156;51.508;5.406;2023-03-14T06:30:40;98731.72;;;9.47;100.00
54042;BME280;41156;51.508;5.406;2023-03-14T06:33:40;98724.97;;;9.49;100.00
54042;BME280;41156;51.508;5.406;2023-03-14T06:36:40;98733.66;;;9.51;100.00
54042;BME280;41156;51.508;5.406;2023-03-14T06:39:41;98735.84;;;9.54;100.00
54042;BME280;41156;51.508;5.406;2023-03-14T06:42:41;98740.69;;;9.57;100.00
54042;BME280;41156;51.508;5.406;2023-03-14T06:45:41;98742.06;;;9.60;100.00
54042;BME280;41156;51.508;5.406;2023-03-14T06:48:42;98740.72;;;9.62;100.00
54042;BME280;41156;51.508;5.406;2023-03-14T06:51:42;98742.63;;;9.67;100.00
54042;BME280;41156;51.508;5.406;2023-03-14T06:54:42;98742.97;;;9.76;100.00
54042;BME280;41156;51.508;5.406;2023-03-14T06:57:43;98741.66;;;9.84;100.00
54042;BME280;41156;51.508;5.406;2023-03-14T07:00:44;98742.53;;;9.94;100.00
54042;BME280;41156;51.508;5.406;2023-03-14T07:03:44;98750.66;;;9.99;100.00
54042;BME280;41156;51.508;5.406;2023-03-14T07:06:45;98757.66;;;10.00;100.00
54042;BME280;41156;51.508;5.406;2023-03-14T07:09:46;98762.25;;;10.00;100.00
54042;BME280;41156;51.508;5.406;2023-03-14T07:12:47;98764.91;;;9.95;100.00
54042;BME280;41156;51.508;5.406;2023-03-14T07:15:47;98765.44;;;9.92;100.00
54042;BME280;41156;51.508;5.406;2023-03-14T07:18:48;98777.59;;;9.89;100.00
54042;BME280;41156;51.508;5.406;2023-03-14T07:21:49;98791.31;;;9.88;100.00
54042;BME280;41156;51.508;5.406;2023-03-14T07:24:49;98784.56;;;9.85;100.00
54042;BME280;41156;51.508;5.406;2023-03-14T07:27:49;98794.25;;;9.81;100.00
54042;BME280;41156;51.508;5.406;2023-03-14T07:30:50;98848.41;;;9.74;100.00
54042;BME280;41156;51.508;5.406;2023-03-14T07:33:50;98885.66;;;9.45;100.00
54042;BME280;41156;51.508;5.406;2023-03-14T07:36:51;98898.13;;;9.02;100.00
54042;BME280;41156;51.508;5.406;2023-03-14T07:39:51;98901.78;;;8.68;100.00
54042;BME280;41156;51.508;5.406;2023-03-14T07:42:51;98913.34;;;8.47;100.00
54042;BME280;41156;51.508;5.406;2023-03-14T07:45:55;98920.13;;;8.15;100.00
54042;BME280;41156;51.508;5.406;2023-03-14T07:48:55;98937.59;;;8.13;100.00
54042;BME280;41156;51.508;5.406;2023-03-14T07:51:55;98955.81;;;8.11;100.00
54042;BME280;41156;51.508;5.406;2023-03-14T07:54:56;98959.19;;;8.01;100.00
54042;BME280;41156;51.508;5.406;2023-03-14T07:57:56;98969.75;;;7.91;100.00
54042;BME280;41156;51.508;5.406;2023-03-14T08:00:58;98978.81;;;7.85;100.00
54042;BME280;41156;51.508;5.406;2023-03-14T08:03:58;98997.03;;;7.83;100.00
54042;BME280;41156;51.508;5.406;2023-03-14T08:06:59;99006.75;;;7.84;100.00
54042;BME280;41156;51.508;5.406;2023-03-14T08:09:59;99000.91;;;7.87;100.00
54042;BME280;41156;51.508;5.406;2023-03-14T08:13:00;99013.94;;;7.95;100.00
54042;BME280;41156;51.508;5.406;2023-03-14T08:16:01;99031.72;;;7.96;100.00
54042;BME280;41156;51.508;5.406;2023-03-14T08:19:01;99034.06;;;7.92;100.00
54042;BME280;41156;51.508;5.406;2023-03-14T08:22:02;99058.19;;;7.87;100.00
54042;BME280;41156;51.508;5.406;2023-03-14T08:25:03;99077.47;;;7.84;100.00
54042;BME280;41156;51.508;5.406;2023-03-14T08:28:05;99083.00;;;7.77;100.00
54042;BME280;41156;51.508;5.406;2023-03-14T08:31:05;99090.97;;;7.72;100.00
54042;BME280;41156;51.508;5.406;2023-03-14T08:34:06;99110.97;;;7.76;100.00
54042;BME280;41156;51.508;5.406;2023-03-14T08:37:07;99124.50;;;7.82;100.00
54042;BME280;41156;51.508;5.406;2023-03-14T08:40:07;99130.44;;;7.84;100.00
54042;BME280;41156;51.508;5.406;2023-03-14T08:43:09;99137.47;;;7.85;100.00
54042;BME280;41156;51.508;5.406;2023-03-14T08:46:10;99147.41;;;7.84;100.00
54042;BME280;41156;51.508;5.406;2023-03-14T08:49:10;99137.63;;;7.78;100.00
54042;BME280;41156;51.508;5.406;2023-03-14T08:52:11;99171.03;;;7.82;100.00
54042;BME280;41156;51.508;5.406;2023-03-14T08:55:11;99176.97;;;7.84;100.00
54042;BME280;41156;51.508;5.406;2023-03-14T08:58:11;99187.50;;;7.86;100.00
54042;BME280;41156;51.508;5.406;2023-03-14T09:01:12;99197.06;;;7.93;100.00
54042;BME280;41156;51.508;5.406;2023-03-14T09:04:13;99204.44;;;7.98;100.00
54042;BME280;41156;51.508;5.406;2023-03-14T09:07:13;99203.72;;;8.03;100.00
54042;BME280;41156;51.508;5.406;2023-03-14T09:10:13;99219.25;;;8.12;100.00
54042;BME280;41156;51.508;5.406;2023-03-14T09:13:14;99232.06;;;8.22;100.00
54042;BME280;41156;51.508;5.406;2023-03-14T09:16:14;99243.78;;;8.28;100.00
54042;BME280;41156;51.508;5.406;2023-03-14T09:19:14;99254.88;;;8.31;100.00
54042;BME280;41156;51.508;5.406;2023-03-14T09:22:15;99253.19;;;8.42;100.00
54042;BME280;41156;51.508;5.406;2023-03-14T09:25:15;99274.56;;;8.61;100.00
54042;BME280;41156;51.508;5.406;2023-03-14T09:28:15;99283.78;;;8.77;100.00
54042;BME280;41156;51.508;5.406;2023-03-14T09:31:16;99296.81;;;8.68;100.00
54042;BME280;41156;51.508;5.406;2023-03-14T09:34:16;99298.59;;;8.50;100.00
54042;BME280;41156;51.508;5.406;2023-03-14T09:37:16;99318.56;;;8.14;100.00
54042;BME280;41156;51.508;5.406;2023-03-14T09:40:18;99356.69;;;7.75;100.00
54042;BME280;41156;51.508;5.406;2023-03-14T09:43:22;99367.75;;;7.44;100.00
54042;BME280;41156;51.508;5.406;2023-03-14T09:46:23;99384.88;;;7.31;100.00
54042;BME280;41156;51.508;5.406;2023-03-14T09:49:28;99412.78;;;7.18;100.00
54042;BME280;41156;51.508;5.406;2023-03-14T09:52:36;99429.28;;;7.03;100.00
54042;BME280;41156;51.508;5.406;2023-03-14T09:55:42;99447.06;;;6.85;100.00
54042;BME280;41156;51.508;5.406;2023-03-14T09:58:45;99467.88;;;6.72;100.00
54042;BME280;41156;51.508;5.406;2023-03-14T10:01:47;99467.28;;;6.70;100.00
54042;BME280;41156;51.508;5.406;2023-03-14T10:04:49;99480.56;;;6.83;100.00
54042;BME280;41156;51.508;5.406;2023-03-14T10:07:50;99497.69;;;7.00;100.00
54042;BME280;41156;51.508;5.406;2023-03-14T10:10:50;99513.59;;;7.20;100.00
54042;BME280;41156;51.508;5.406;2023-03-14T10:14:09;99531.19;;;7.35;100.00
54042;BME280;41156;51.508;5.406;2023-03-14T10:17:13;99527.13;;;7.44;100.00
54042;BME280;41156;51.508;5.406;2023-03-14T10:23:34;99567.28;;;7.57;100.00
54042;BME280;41156;51.508;5.406;2023-03-14T10:26:35;99575.81;;;7.54;100.00
54042;BME280;41156;51.508;5.406;2023-03-14T10:29:52;99591.56;;;7.51;100.00
54042;BME280;41156;51.508;5.406;2023-03-14T10:32:52;99603.09;;;7.39;100.00
54042;BME280;41156;51.508;5.406;2023-03-14T10:42:41;99640.00;;;7.63;100.00
54042;BME280;41156;51.508;5.406;2023-03-14T10:45:44;99661.91;;;7.66;100.00
54042;BME280;41156;51.508;5.406;2023-03-14T10:48:51;99669.38;;;7.64;100.00
54042;BME280;41156;51.508;5.406;2023-03-14T10:51:53;99673.84;;;7.70;100.00
54042;BME280;41156;51.508;5.406;2023-03-14T10:55:01;99698.19;;;7.75;100.00
54042;BME280;41156;51.508;5.406;2023-03-14T10:58:02;99713.16;;;7.71;100.00
54042;BME280;41156;51.508;5.406;2023-03-14T11:07:42;99747.38;;;7.14;100.00
54042;BME280;41156;51.508;5.406;2023-03-14T11:10:45;99762.03;;;7.18;100.00
54042;BME280;41156;51.508;5.406;2023-03-14T11:14:06;99771.06;;;7.23;100.00
54042;BME280;41156;51.508;5.406;2023-03-14T11:17:20;99785.97;;;7.26;100.00
54042;BME280;41156;51.508;5.406;2023-03-14T11:20:29;99789.66;;;7.25;100.00
54042;BME280;41156;51.508;5.406;2023-03-14T11:27:18;99807.28;;;7.46;100.00
54042;BME280;41156;51.508;5.406;2023-03-14T11:33:38;99839.19;;;7.36;100.00
54042;BME280;41156;51.508;5.406;2023-03-14T11:36:46;99840.94;;;7.23;100.00
54042;BME280;41156;51.508;5.406;2023-03-14T11:39:56;99884.50;;;6.94;100.00
54042;BME280;41156;51.508;5.406;2023-03-14T11:46:27;99893.84;;;5.86;100.00
54042;BME280;41156;51.508;5.406;2023-03-14T11:49:33;99892.03;;;5.73;100.00
54042;BME280;41156;51.508;5.406;2023-03-14T11:53:02;99885.22;;;5.77;100.00
54042;BME280;41156;51.508;5.406;2023-03-14T11:56:04;99903.34;;;5.88;100.00
54042;BME280;41156;51.508;5.406;2023-03-14T11:59:18;99912.00;;;6.17;100.00
54042;BME280;41156;51.508;5.406;2023-03-14T12:02:35;99917.31;;;6.51;100.00
54042;BME280;41156;51.508;5.406;2023-03-14T12:06:02;99924.84;;;6.80;100.00
54042;BME280;41156;51.508;5.406;2023-03-14T12:09:05;99929.53;;;6.98;100.00
54042;BME280;41156;51.508;5.406;2023-03-14T12:12:12;99945.19;;;7.08;100.00
54042;BME280;41156;51.508;5.406;2023-03-14T12:15:21;99960.25;;;7.09;100.00
54042;BME280;41156;51.508;5.406;2023-03-14T12:18:28;99965.44;;;7.11;100.00
54042;BME280;41156;51.508;5.406;2023-03-14T12:21:55;99973.66;;;7.16;100.00
54042;BME280;41156;51.508;5.406;2023-03-14T12:24:59;99984.81;;;7.26;100.00
54042;BME280;41156;51.508;5.406;2023-03-14T12:28:16;99981.81;;;7.48;100.00
54042;BME280;41156;51.508;5.406;2023-03-14T12:34:32;99988.38;;;7.84;100.00
54042;BME280;41156;51.508;5.406;2023-03-14T12:37:45;99993.50;;;7.92;100.00
54042;BME280;41156;51.508;5.406;2023-03-14T12:50:44;100003.03;;;8.45;100.00
54042;BME280;41156;51.508;5.406;2023-03-14T13:00:44;100019.56;;;8.48;100.00
54042;BME280;41156;51.508;5.406;2023-03-14T13:03:47;100030.47;;;8.79;100.00
54042;BME280;41156;51.508;5.406;2023-03-14T13:06:52;100030.75;;;8.89;100.00
54042;BME280;41156;51.508;5.406;2023-03-14T13:16:20;100056.72;;;8.83;90.49
54042;BME280;41156;51.508;5.406;2023-03-14T13:19:24;100073.50;;;8.85;95.22
54042;BME280;41156;51.508;5.406;2023-03-14T13:22:33;100076.78;;;8.87;96.68
54042;BME280;41156;51.508;5.406;2023-03-14T13:25:35;100081.28;;;8.94;93.58
54042;BME280;41156;51.508;5.406;2023-03-14T13:28:36;100087.13;;;8.91;91.76
54042;BME280;41156;51.508;5.406;2023-03-14T13:31:36;100100.00;;;8.88;93.70
54042;BME280;41156;51.508;5.406;2023-03-14T13:34:40;100107.09;;;8.83;81.49
54042;BME280;41156;51.508;5.406;2023-03-14T13:37:40;100107.63;;;8.92;99.13
54042;BME280;41156;51.508;5.406;2023-03-14T13:40:43;100108.00;;;8.95;93.51
54042;BME280;41156;51.508;5.406;2023-03-14T13:43:44;100112.91;;;9.05;91.33
54042;BME280;41156;51.508;5.406;2023-03-14T13:46:44;100114.72;;;9.11;93.06
54042;BME280;41156;51.508;5.406;2023-03-14T13:49:45;100120.09;;;9.11;88.07
54042;BME280;41156;51.508;5.406;2023-03-14T13:52:46;100140.88;;;9.04;98.86
54042;BME280;41156;51.508;5.406;2023-03-14T13:55:49;100152.72;;;9.03;83.79
54042;BME280;41156;51.508;5.406;2023-03-14T13:58:49;100159.22;;;8.95;81.37
54042;BME280;41156;51.508;5.406;2023-03-14T14:01:51;100173.66;;;9.01;84.53
54042;BME280;41156;51.508;5.406;2023-03-14T14:04:52;100178.25;;;9.00;80.61
54042;BME280;41156;51.508;5.406;2023-03-14T14:07:52;100203.38;;;8.94;95.99
54042;BME280;41156;51.508;5.406;2023-03-14T14:10:59;100200.38;;;8.77;78.18
54042;BME280;41156;51.508;5.406;2023-03-14T14:14:01;100219.25;;;8.77;86.97
54042;BME280;41156;51.508;5.406;2023-03-14T14:17:04;100231.25;;;8.81;90.00
54042;BME280;41156;51.508;5.406;2023-03-14T14:20:08;100246.81;;;8.79;79.81
54042;BME280;41156;51.508;5.406;2023-03-14T14:26:19;100281.88;;;8.66;80.73
54042;BME280;41156;51.508;5.406;2023-03-14T14:29:40;100264.53;;;8.62;80.55
54042;BME280;41156;51.508;5.406;2023-03-14T14:32:40;100288.00;;;8.41;76.96
54042;BME280;41156;51.508;5.406;2023-03-14T14:35:40;100303.16;;;8.29;76.65
54042;BME280;41156;51.508;5.406;2023-03-14T14:38:41;100299.88;;;8.27;80.60
54042;BME280;41156;51.508;5.406;2023-03-14T14:41:42;100310.47;;;8.15;81.13
54042;BME280;41156;51.508;5.406;2023-03-14T14:44:43;100313.78;;;8.10;79.33
54042;BME280;41156;51.508;5.406;2023-03-14T14:47:55;100334.28;;;8.11;85.12
54042;BME280;41156;51.508;5.406;2023-03-14T14:51:00;100329.13;;;8.03;84.07
54042;BME280;41156;51.508;5.406;2023-03-14T14:54:03;100343.63;;;7.95;78.58
54042;BME280;41156;51.508;5.406;2023-03-14T14:57:17;100355.00;;;7.91;77.59
54042;BME280;41156;51.508;5.406;2023-03-14T15:00:20;100368.28;;;7.79;82.94
54042;BME280;41156;51.508;5.406;2023-03-14T15:03:21;100377.59;;;7.76;77.45
54042;BME280;41156;51.508;5.406;2023-03-14T15:06:24;100398.50;;;7.68;86.42
54042;BME280;41156;51.508;5.406;2023-03-14T15:09:26;100394.16;;;7.60;79.42
54042;BME280;41156;51.508;5.406;2023-03-14T15:12:27;100408.59;;;7.59;83.84
54042;BME280;41156;51.508;5.406;2023-03-14T15:15:27;100404.06;;;7.53;80.29
54042;BME280;41156;51.508;5.406;2023-03-14T15:18:29;100414.38;;;7.49;77.27
54042;BME280;41156;51.508;5.406;2023-03-14T15:21:31;100431.78;;;7.47;87.21
54042;BME280;41156;51.508;5.406;2023-03-14T15:24:31;100440.03;;;7.38;79.99
54042;BME280;41156;51.508;5.406;2023-03-14T15:27:31;100440.81;;;7.26;83.65
54042;BME280;41156;51.508;5.406;2023-03-14T15:30:32;100457.53;;;7.14;79.63
54042;BME280;41156;51.508;5.406;2023-03-14T15:33:32;100472.19;;;7.12;80.96
54042;BME280;41156;51.508;5.406;2023-03-14T15:36:34;100465.97;;;7.04;84.33
54042;BME280;41156;51.508;5.406;2023-03-14T15:39:35;100472.78;;;7.00;86.75
54042;BME280;41156;51.508;5.406;2023-03-14T15:42:36;100472.34;;;6.97;89.55
54042;BME280;41156;51.508;5.406;2023-03-14T15:45:36;100474.38;;;6.88;83.68
54042;BME280;41156;51.508;5.406;2023-03-14T15:48:36;100481.56;;;6.81;86.47
54042;BME280;41156;51.508;5.406;2023-03-14T15:51:37;100485.09;;;6.81;90.97
54042;BME280;41156;51.508;5.406;2023-03-14T15:54:37;100489.63;;;6.81;86.58
54042;BME280;41156;51.508;5.406;2023-03-14T15:57:37;100499.31;;;6.75;78.28
54042;BME280;41156;51.508;5.406;2023-03-14T16:00:38;100512.69;;;6.69;86.65
54042;BME280;41156;51.508;5.406;2023-03-14T16:03:38;100525.44;;;6.60;81.85
54042;BME280;41156;51.508;5.406;2023-03-14T16:06:38;100526.47;;;6.59;90.62
54042;BME280;41156;51.508;5.406;2023-03-14T16:09:39;100527.72;;;6.56;88.02
54042;BME280;41156;51.508;5.406;2023-03-14T16:12:40;100536.16;;;6.53;82.16
54042;BME280;41156;51.508;5.406;2023-03-14T16:15:40;100538.84;;;6.53;93.64
54042;BME280;41156;51.508;5.406;2023-03-14T16:18:41;100543.53;;;6.51;91.90
54042;BME280;41156;51.508;5.406;2023-03-14T16:21:41;100552.63;;;6.50;93.71
54042;BME280;41156;51.508;5.406;2023-03-14T16:24:42;100565.81;;;6.45;86.23
54042;BME280;41156;51.508;5.406;2023-03-14T16:27:42;100569.31;;;6.45;88.65
54042;BME280;41156;51.508;5.406;2023-03-14T16:30:43;100574.88;;;6.44;90.26
54042;BME280;41156;51.508;5.406;2023-03-14T16:33:43;100602.72;;;6.36;86.88
54042;BME280;41156;51.508;5.406;2023-03-14T16:36:44;100596.00;;;6.25;87.15
54042;BME280;41156;51.508;5.406;2023-03-14T16:39:46;100595.75;;;6.20;87.25
54042;BME280;41156;51.508;5.406;2023-03-14T16:42:46;100604.34;;;6.16;89.27
54042;BME280;41156;51.508;5.406;2023-03-14T16:45:49;100612.97;;;6.11;87.82
54042;BME280;41156;51.508;5.406;2023-03-14T16:48:49;100615.22;;;6.07;90.54
54042;BME280;41156;51.508;5.406;2023-03-14T16:51:50;100625.25;;;5.99;89.45
54042;BME280;41156;51.508;5.406;2023-03-14T16:54:50;100622.28;;;5.93;89.29
54042;BME280;41156;51.508;5.406;2023-03-14T16:57:52;100629.31;;;5.95;93.99